EmailTwitter


Surface observations / United Kingdom / EGLL (03772)

Regions: Quebec | Canada | USA | Europe | France | UK | Elsewhere
Station
Display
Info & Location for EGLL (03772) | Help decoding METAR

Weather Conditions observed on 2017/06/27 at 18:50 UTC at LONDON/HEATHROW, UK (EGLL)

Temperature: 17.0 Celsius.

Dewpoint: 16.0 Celsius.

Relative Humidity: 94%

Humidex: 22.

Winds: Northeast at 9 km/h or 5 knots.

Mean Sea level Pressure: 100.30 kilopascals.

Coded METAR:

EGLL 271850Z 06005KT 4700 RA SCT005 BKN012 17/16 Q1003=